Terminal Aerodrome Forecast
Issued by NWS

Home | Current Version | Previous Version | Graphics & Text | Print | Product List | Glossary Off
Versions: 1 2 3 4 5 6 7 8 9 10 11 12 13 14 15

000
FTUS42 KMHX 120500
TAFOAJ
TAF
KOAJ 120531Z 1206/1306 00000KT 3SM BR SCT005
      TEMPO 1209/1212 1SM BR OVC003
     FM121300 03005KT P6SM BKN030
     FM121600 08007KT P6SM SCT040
     FM130000 16003KT P6SM SKC
      AMD LTD TO CLD VIS AND WIND=

USA.gov is the U.S. government's official web portal to all federal, state and local government web resources and services.